createdAt,value
2019-04-21T00:02:14.955Z,9.13
2019-04-21T00:04:56.881Z,8.93
2019-04-21T00:07:37.737Z,7.90
2019-04-21T00:10:12.157Z,8.43
2019-04-21T00:12:40.661Z,9.17
2019-04-21T00:15:06.355Z,10.33
2019-04-21T00:17:32.066Z,9.57
2019-04-21T00:20:16.522Z,9.07
2019-04-21T00:22:52.580Z,7.83
2019-04-21T00:25:27.852Z,8.73
2019-04-21T00:28:11.438Z,7.93
2019-04-21T00:30:44.215Z,8.33
2019-04-21T00:33:06.844Z,8.10
2019-04-21T00:35:39.543Z,8.00
2019-04-21T00:38:25.086Z,8.30
2019-04-21T00:41:00.386Z,9.17
2019-04-21T00:43:25.253Z,7.60
2019-04-21T00:45:51.815Z,8.47
2019-04-21T00:48:34.537Z,7.80
2019-04-21T00:53:58.330Z,9.07
2019-04-21T00:56:27.460Z,8.07
2019-04-21T00:58:59.830Z,8.10
2019-04-21T01:01:24.885Z,8.90
2019-04-21T01:04:02.254Z,7.40
2019-04-21T01:06:35.164Z,7.67
2019-04-21T01:09:03.676Z,7.43
2019-04-21T01:11:44.769Z,8.43
2019-04-21T01:14:15.043Z,9.40
2019-04-21T01:16:45.810Z,9.40
2019-04-21T01:19:16.751Z,10.07
2019-04-21T01:21:27.119Z,8.67
2019-04-21T01:24:07.733Z,9.57
2019-04-21T01:26:41.464Z,10.30
2019-04-21T01:29:20.929Z,10.43
2019-04-21T01:32:08.586Z,9.87
2019-04-21T01:34:33.036Z,9.80
2019-04-21T01:36:58.431Z,8.93
2019-04-21T01:39:42.721Z,8.97
2019-04-21T01:42:08.863Z,8.70
2019-04-21T01:44:49.903Z,9.20
2019-04-21T01:47:13.085Z,9.00
2019-04-21T01:49:41.686Z,8.80
2019-04-21T01:52:34.531Z,8.57
2019-04-21T01:55:12.807Z,8.80
2019-04-21T01:57:50.328Z,13.53
2019-04-21T02:00:13.402Z,9.57
2019-04-21T02:03:01.740Z,9.53
2019-04-21T02:05:37.559Z,9.37
2019-04-21T02:08:03.638Z,9.93
2019-04-21T02:10:49.026Z,10.27
2019-04-21T02:13:10.263Z,9.87
2019-04-21T02:15:54.507Z,10.23
2019-04-21T02:18:16.975Z,10.47
2019-04-21T02:20:39.877Z,9.73
2019-04-21T02:23:34.625Z,10.03
2019-04-21T02:26:02.089Z,10.87
2019-04-21T02:28:38.456Z,10.90
2019-04-21T02:31:14.207Z,10.23
2019-04-21T02:39:02.405Z,11.77
2019-04-21T02:41:12.864Z,12.80
2019-04-21T02:43:58.338Z,12.13
2019-04-21T02:46:38.544Z,12.17
2019-04-21T02:49:13.419Z,14.07
2019-04-21T02:51:38.713Z,12.77
2019-04-21T02:56:34.451Z,12.03
2019-04-21T03:02:19.027Z,13.37
2019-04-21T03:07:31.896Z,14.83
2019-04-21T03:09:51.176Z,14.13
2019-04-21T03:12:32.022Z,13.70
2019-04-21T03:15:15.969Z,13.40
2019-04-21T03:17:46.497Z,12.77
2019-04-21T03:20:08.746Z,13.40
2019-04-21T03:22:49.077Z,13.43
2019-04-21T03:25:31.167Z,13.53
2019-04-21T03:33:42.954Z,12.07
2019-04-21T03:38:12.958Z,13.80
2019-04-21T03:40:26.209Z,12.93
2019-04-21T03:43:04.601Z,12.90
2019-04-21T03:48:13.645Z,13.13
2019-04-21T03:50:39.619Z,13.47
2019-04-21T03:53:22.671Z,13.07
2019-04-21T03:58:41.916Z,12.63
2019-04-21T04:01:09.234Z,12.47
2019-04-21T04:16:50.166Z,13.00
2019-04-21T04:19:09.081Z,14.60
2019-04-21T04:24:19.646Z,24.60
2019-04-21T04:26:45.607Z,20.37
2019-04-21T04:29:19.849Z,20.73
2019-04-21T04:31:43.238Z,20.33
2019-04-21T04:34:27.383Z,17.77
2019-04-21T04:52:31.310Z,20.33
2019-04-21T04:54:54.495Z,18.30
2019-04-21T05:00:14.354Z,19.00
2019-04-21T05:05:23.857Z,18.63
2019-04-21T05:12:38.822Z,19.57
2019-04-21T05:15:12.757Z,21.57
2019-04-21T05:17:43.255Z,27.70
2019-04-21T05:20:24.963Z,24.77
2019-04-21T05:22:47.391Z,22.87
2019-04-21T05:25:16.991Z,24.70
2019-04-21T05:27:43.450Z,24.73
2019-04-21T05:30:33.857Z,27.10
2019-04-21T05:33:05.382Z,27.07
2019-04-21T05:35:50.318Z,27.33
2019-04-21T05:38:33.329Z,27.03
2019-04-21T05:40:55.235Z,27.13
2019-04-21T05:43:39.054Z,26.47
2019-04-21T05:46:13.972Z,26.13
2019-04-21T05:48:54.298Z,26.00
2019-04-21T05:51:28.732Z,25.20
2019-04-21T05:54:10.987Z,24.63
2019-04-21T05:56:37.995Z,24.23
2019-04-21T05:59:07.759Z,24.50
2019-04-21T06:01:47.040Z,24.00
2019-04-21T06:04:34.693Z,24.17
2019-04-21T06:06:47.659Z,22.13
2019-04-21T06:09:21.314Z,22.20
2019-04-21T06:11:50.797Z,20.77
2019-04-21T06:14:20.308Z,19.97
2019-04-21T06:16:55.676Z,16.47
2019-04-21T06:19:39.345Z,14.90
2019-04-21T06:21:58.965Z,15.07
2019-04-21T06:24:39.210Z,13.90
2019-04-21T06:29:38.338Z,13.00
2019-04-21T06:35:00.254Z,12.23
2019-04-21T06:40:08.980Z,9.67
2019-04-21T06:42:23.933Z,10.33
2019-04-21T06:45:00.996Z,11.23
2019-04-21T06:47:37.980Z,9.47
2019-04-21T06:50:01.659Z,8.47
2019-04-21T06:52:46.664Z,8.63
2019-04-21T06:55:12.083Z,9.73
2019-04-21T06:57:38.932Z,8.83
2019-04-21T07:00:14.971Z,10.10
2019-04-21T07:03:11.050Z,9.33
2019-04-21T07:05:22.791Z,13.77
2019-04-21T07:08:11.295Z,12.13
2019-04-21T07:10:26.529Z,10.70
2019-04-21T07:12:51.608Z,10.17
2019-04-21T07:15:34.113Z,8.65
2019-04-21T07:18:09.024Z,10.28
2019-04-21T07:20:30.968Z,8.68
2019-04-21T07:23:09.407Z,8.00
2019-04-21T07:25:43.463Z,7.50
2019-04-21T07:28:09.979Z,7.87
2019-04-21T07:30:49.600Z,7.58
2019-04-21T07:33:41.187Z,7.37
2019-04-21T07:35:44.490Z,7.40
2019-04-21T07:38:24.474Z,9.10
2019-04-21T07:40:47.862Z,9.90
2019-04-21T07:43:20.454Z,8.75
2019-04-21T07:45:52.456Z,8.05
2019-04-21T07:48:36.126Z,8.00
2019-04-21T07:51:22.894Z,7.83
2019-04-21T07:53:55.336Z,14.00
2019-04-21T07:56:09.478Z,10.63
2019-04-21T07:58:59.115Z,10.63
2019-04-21T08:04:03.816Z,9.28
2019-04-21T08:06:38.739Z,8.65
2019-04-21T08:09:06.224Z,8.05
2019-04-21T08:11:32.756Z,7.90
2019-04-21T08:14:14.714Z,8.88
2019-04-21T08:16:49.824Z,8.10
2019-04-21T08:19:13.075Z,7.00
2019-04-21T08:21:49.648Z,7.17
2019-04-21T08:24:19.778Z,6.47
2019-04-21T08:26:55.816Z,7.58
2019-04-21T08:29:39.415Z,7.72
2019-04-21T08:32:06.840Z,6.97
2019-04-21T08:34:30.056Z,8.55
2019-04-21T08:36:56.737Z,8.00
2019-04-21T08:39:42.065Z,8.20
2019-04-21T08:42:06.552Z,8.33
2019-04-21T08:44:43.086Z,8.70
2019-04-21T08:47:16.779Z,8.68
2019-04-21T08:49:41.411Z,7.80
2019-04-21T08:52:34.723Z,8.50
2019-04-21T08:54:55.812Z,9.58
2019-04-21T08:57:52.606Z,33.70
2019-04-21T09:00:19.814Z,19.07
2019-04-21T09:03:02.363Z,11.63
2019-04-21T09:05:29.700Z,15.38
2019-04-21T09:08:06.663Z,26.65
2019-04-21T09:10:35.581Z,10.40
2019-04-21T09:13:04.971Z,6.92
2019-04-21T09:15:39.127Z,9.05
2019-04-21T09:18:08.451Z,8.75
2019-04-21T09:20:47.352Z,9.28
2019-04-21T09:23:13.309Z,7.47
2019-04-21T09:25:53.024Z,8.43
2019-04-21T09:28:22.665Z,7.00
2019-04-21T09:30:43.397Z,7.58
2019-04-21T09:33:09.267Z,6.00
2019-04-21T09:35:47.471Z,6.62
2019-04-21T09:38:22.718Z,6.10
2019-04-21T09:40:49.026Z,6.33
2019-04-21T09:43:25.651Z,6.67
2019-04-21T09:45:49.653Z,5.87
2019-04-21T09:48:22.528Z,8.98
2019-04-21T09:50:52.802Z,6.50
2019-04-21T09:53:31.222Z,8.35
2019-04-21T09:55:59.750Z,10.10
2019-04-21T09:58:35.820Z,7.65
2019-04-21T10:01:13.567Z,7.67
2019-04-21T10:03:42.822Z,7.20
2019-04-21T10:06:06.682Z,6.62
2019-04-21T10:08:38.536Z,6.58
2019-04-21T10:11:09.838Z,7.08
2019-04-21T10:13:40.494Z,9.13
2019-04-21T10:16:13.220Z,7.12
2019-04-21T10:18:44.119Z,6.35
2019-04-21T10:21:15.470Z,5.90
2019-04-21T10:23:47.962Z,9.35
2019-04-21T10:26:24.341Z,8.00
2019-04-21T10:28:58.704Z,9.48
2019-04-21T10:31:27.364Z,5.58
2019-04-21T10:33:58.938Z,8.10
2019-04-21T10:36:30.954Z,7.57
2019-04-21T10:39:04.050Z,6.20
2019-04-21T10:41:35.346Z,7.17
2019-04-21T10:44:07.205Z,12.57
2019-04-21T10:46:38.172Z,7.43
2019-04-21T10:49:08.803Z,6.87
2019-04-21T10:51:39.488Z,6.07
2019-04-21T10:54:11.436Z,5.00
2019-04-21T10:56:44.412Z,5.10
2019-04-21T10:59:14.731Z,6.37
2019-04-21T11:01:45.352Z,6.50
2019-04-21T11:04:24.517Z,7.70
2019-04-21T11:06:50.747Z,6.17
2019-04-21T11:09:22.037Z,5.67
2019-04-21T11:11:53.556Z,5.80
2019-04-21T11:14:27.189Z,10.83
2019-04-21T11:16:58.673Z,15.50
2019-04-21T11:19:30.680Z,6.37
2019-04-21T11:22:02.878Z,6.00
2019-04-21T11:24:33.755Z,5.47
2019-04-21T11:27:04.681Z,6.00
2019-04-21T11:29:35.296Z,5.77
2019-04-21T11:32:07.103Z,6.40
2019-04-21T11:34:38.936Z,6.10
2019-04-21T11:37:10.768Z,5.57
2019-04-21T11:39:50.157Z,5.63
2019-04-21T11:42:19.511Z,5.50
2019-04-21T11:44:51.495Z,5.20
2019-04-21T11:47:28.037Z,6.37
2019-04-21T11:49:59.067Z,6.77
2019-04-21T11:52:29.710Z,6.07
2019-04-21T11:55:00.574Z,6.57
2019-04-21T11:57:36.694Z,5.57
2019-04-21T12:00:06.054Z,6.07
2019-04-21T12:02:37.388Z,6.97
2019-04-21T12:05:09.790Z,5.73
2019-04-21T12:07:40.933Z,6.30
2019-04-21T12:10:13.441Z,15.93
2019-04-21T12:12:45.420Z,5.73
2019-04-21T12:15:16.737Z,5.40
2019-04-21T12:17:48.084Z,8.30
2019-04-21T12:20:18.970Z,5.47
2019-04-21T12:22:49.564Z,5.50
2019-04-21T12:25:22.937Z,6.50
2019-04-21T12:27:54.122Z,6.03
2019-04-21T12:30:25.037Z,7.73
2019-04-21T12:33:00.148Z,5.73
2019-04-21T12:35:30.768Z,5.57
2019-04-21T12:38:02.652Z,5.97
2019-04-21T12:40:34.710Z,5.30
2019-04-21T12:43:06.424Z,5.50
2019-04-21T12:45:37.854Z,6.13
2019-04-21T12:48:10.328Z,7.03
2019-04-21T12:50:41.670Z,5.70
2019-04-21T12:53:14.171Z,5.63
2019-04-21T12:55:46.326Z,5.47
2019-04-21T12:58:17.344Z,6.23
2019-04-21T13:00:49.493Z,5.80
2019-04-21T13:03:23.049Z,5.37
2019-04-21T13:05:53.771Z,6.37
2019-04-21T13:08:25.034Z,5.50
2019-04-21T13:10:56.147Z,5.40
2019-04-21T13:13:28.054Z,5.77
2019-04-21T13:15:58.827Z,5.23
2019-04-21T13:18:29.452Z,5.30
2019-04-21T13:21:02.162Z,7.27
2019-04-21T13:23:32.330Z,5.70
2019-04-21T13:26:06.526Z,6.27
2019-04-21T13:28:37.730Z,5.83
2019-04-21T13:31:09.352Z,5.83
2019-04-21T13:33:39.973Z,5.80
2019-04-21T13:36:11.771Z,6.73
2019-04-21T13:39:13.691Z,7.87
2019-04-21T13:41:32.693Z,5.43
2019-04-21T13:43:53.020Z,7.10
2019-04-21T13:46:24.949Z,5.87
2019-04-21T13:48:56.705Z,6.07
2019-04-21T13:51:27.274Z,6.23
2019-04-21T13:53:57.869Z,5.70
2019-04-21T13:56:28.923Z,5.97
2019-04-21T13:59:02.329Z,5.87
2019-04-21T14:01:33.964Z,5.40
2019-04-21T14:04:07.313Z,5.43
2019-04-21T14:06:38.472Z,5.37
2019-04-21T14:09:11.499Z,7.27
2019-04-21T14:11:43.498Z,7.00
2019-04-21T14:14:14.476Z,5.90
2019-04-21T14:16:45.763Z,5.47
2019-04-21T14:19:17.270Z,9.03
2019-04-21T14:21:49.870Z,7.10
2019-04-21T14:24:20.201Z,5.50
2019-04-21T14:26:52.055Z,5.10
2019-04-21T14:29:23.858Z,5.27
2019-04-21T14:31:55.903Z,5.07
2019-04-21T14:34:28.122Z,5.30
2019-04-21T14:36:59.022Z,4.80
2019-04-21T14:39:30.374Z,5.03
2019-04-21T14:42:02.282Z,6.50
2019-04-21T14:44:33.267Z,5.67
2019-04-21T14:47:09.254Z,4.70
2019-04-21T14:49:47.311Z,6.00
2019-04-21T14:52:21.111Z,4.87
2019-04-21T14:54:56.338Z,3.97
2019-04-21T14:57:27.399Z,4.20
2019-04-21T14:59:57.970Z,6.77
2019-04-21T15:02:29.911Z,4.37
2019-04-21T15:05:02.117Z,4.33
2019-04-21T15:07:33.095Z,4.43
2019-04-21T15:10:14.279Z,4.03
2019-04-21T15:12:39.342Z,4.83
2019-04-21T15:15:11.770Z,6.97
2019-04-21T15:17:44.028Z,13.40
2019-04-21T15:20:16.318Z,20.83
2019-04-21T15:22:48.306Z,6.80
2019-04-21T15:25:20.415Z,3.97
2019-04-21T15:27:52.813Z,4.90
2019-04-21T15:30:24.767Z,4.17
2019-04-21T15:32:55.382Z,3.70
2019-04-21T15:35:26.933Z,7.27
2019-04-21T15:37:58.066Z,6.37
2019-04-21T15:40:39.887Z,5.87
2019-04-21T15:43:02.269Z,8.63
2019-04-21T15:45:33.157Z,4.93
2019-04-21T15:48:04.342Z,5.30
2019-04-21T15:50:35.682Z,6.90
2019-04-21T15:53:08.008Z,4.60
2019-04-21T15:55:57.033Z,4.07
2019-04-21T15:58:30.456Z,4.67
2019-04-21T16:01:06.930Z,4.17
2019-04-21T16:03:38.562Z,4.10
2019-04-21T16:06:09.673Z,4.30
2019-04-21T16:08:40.372Z,4.57
2019-04-21T16:11:11.449Z,4.20
2019-04-21T16:13:43.522Z,4.67
2019-04-21T16:16:14.705Z,4.27
2019-04-21T16:18:46.009Z,5.10
2019-04-21T16:21:18.038Z,3.60
2019-04-21T16:23:48.766Z,3.80
2019-04-21T16:26:20.357Z,3.60
2019-04-21T16:28:51.221Z,3.67
2019-04-21T16:31:22.554Z,4.27
2019-04-21T16:33:54.629Z,4.40
2019-04-21T16:36:25.661Z,4.60
2019-04-21T16:38:57.503Z,3.90
2019-04-21T16:41:29.309Z,5.57
2019-04-21T16:44:00.921Z,5.97
2019-04-21T16:46:31.699Z,7.67
2019-04-21T16:49:02.343Z,6.07
2019-04-21T16:51:33.907Z,4.47
2019-04-21T16:54:06.228Z,6.00
2019-04-21T16:56:39.605Z,5.90
2019-04-21T17:01:54.522Z,4.80
2019-04-21T17:04:26.463Z,8.60
2019-04-21T17:06:58.791Z,7.00
2019-04-21T17:09:30.640Z,5.43
2019-04-21T17:12:05.575Z,9.53
2019-04-21T17:14:51.297Z,4.60
2019-04-21T17:17:35.237Z,5.23
2019-04-21T17:19:45.512Z,5.00
2019-04-21T17:22:13.753Z,5.40
2019-04-21T17:24:46.479Z,4.97
2019-04-21T17:27:17.447Z,4.97
2019-04-21T17:29:50.654Z,4.23
2019-04-21T17:32:27.292Z,4.97
2019-04-21T17:34:56.147Z,5.10
2019-04-21T17:37:28.402Z,5.43
2019-04-21T17:40:01.884Z,8.20
2019-04-21T17:42:39.793Z,8.37
2019-04-21T17:45:05.824Z,7.27
2019-04-21T17:47:45.823Z,5.50
2019-04-21T17:50:23.416Z,5.17
2019-04-21T17:53:04.964Z,7.20
2019-04-21T17:55:36.927Z,5.90
2019-04-21T17:58:21.732Z,4.53
2019-04-21T18:01:10.758Z,7.00
2019-04-21T18:03:56.919Z,6.10
2019-04-21T18:06:01.498Z,5.77
2019-04-21T18:08:36.752Z,7.10
2019-04-21T18:11:01.179Z,7.53
2019-04-21T18:13:25.009Z,6.83
2019-04-21T18:16:08.143Z,5.83
2019-04-21T18:18:26.867Z,6.03
2019-04-21T18:21:08.946Z,7.50
2019-04-21T18:24:00.757Z,7.10
2019-04-21T18:26:35.947Z,7.80
2019-04-21T18:28:59.115Z,8.40
2019-04-21T18:31:36.451Z,12.90
2019-04-21T18:34:12.517Z,10.63
2019-04-21T18:36:47.801Z,15.67
2019-04-21T18:39:38.178Z,12.87
2019-04-21T18:42:19.914Z,16.70
2019-04-21T18:45:11.053Z,20.03
2019-04-21T18:47:31.800Z,47.27
2019-04-21T18:49:56.204Z,28.63
2019-04-21T18:52:45.205Z,25.43
2019-04-21T18:55:16.248Z,44.63
2019-04-21T18:57:44.008Z,29.30
2019-04-21T19:00:17.853Z,30.47
2019-04-21T19:02:47.710Z,38.43
2019-04-21T19:05:19.148Z,69.23
2019-04-21T19:08:05.708Z,81.27
2019-04-21T19:10:39.708Z,57.23
2019-04-21T19:15:40.039Z,45.57
2019-04-21T19:18:43.663Z,42.60
2019-04-21T19:20:51.812Z,37.40
2019-04-21T19:23:33.851Z,36.73
2019-04-21T19:25:55.602Z,35.93
2019-04-21T19:28:24.608Z,32.77
2019-04-21T19:33:29.745Z,36.40
2019-04-21T19:35:49.791Z,34.93
2019-04-21T19:38:30.655Z,33.03
2019-04-21T19:41:14.426Z,34.00
2019-04-21T19:43:47.104Z,37.30
2019-04-21T19:46:13.995Z,37.30
2019-04-21T19:48:56.643Z,40.43
2019-04-21T19:51:20.899Z,35.93
2019-04-21T19:53:49.063Z,37.13
2019-04-21T19:56:08.442Z,41.73
2019-04-21T19:58:43.550Z,33.40
2019-04-21T20:01:11.949Z,29.57
2019-04-21T20:03:49.871Z,26.23
2019-04-21T20:06:34.527Z,23.73
2019-04-21T20:09:09.604Z,23.43
2019-04-21T20:11:38.766Z,20.97
2019-04-21T20:14:37.668Z,20.33
2019-04-21T20:16:44.136Z,17.20
2019-04-21T20:19:02.358Z,17.37
2019-04-21T20:21:31.029Z,14.63
2019-04-21T20:24:09.129Z,14.57
2019-04-21T20:26:41.249Z,13.33
2019-04-21T20:29:20.086Z,15.93
2019-04-21T20:31:54.359Z,16.93
2019-04-21T20:34:34.984Z,17.83
2019-04-21T20:37:07.706Z,15.50
2019-04-21T20:39:25.411Z,15.07
2019-04-21T20:42:11.354Z,14.33
2019-04-21T20:44:40.230Z,14.87
2019-04-21T20:47:13.143Z,15.03
2019-04-21T20:49:38.558Z,15.50
2019-04-21T20:52:23.985Z,19.47
2019-04-21T20:54:49.358Z,16.97
2019-04-21T20:57:21.920Z,19.10
2019-04-21T21:00:02.358Z,13.70
2019-04-21T21:02:30.032Z,11.03
2019-04-21T21:04:54.757Z,9.17
2019-04-21T21:07:45.901Z,10.67
2019-04-21T21:10:12.552Z,8.80
2019-04-21T21:12:50.848Z,10.60
2019-04-21T21:15:07.897Z,10.27
2019-04-21T21:17:52.366Z,9.57
2019-04-21T21:20:29.504Z,10.67
2019-04-21T21:22:52.056Z,10.43
2019-04-21T21:25:33.760Z,11.23
2019-04-21T21:27:53.113Z,10.33
2019-04-21T21:30:29.028Z,10.50
2019-04-21T21:33:00.829Z,10.10
2019-04-21T21:35:31.035Z,5.87
2019-04-21T21:38:08.134Z,9.20
2019-04-21T21:40:36.027Z,5.57
2019-04-21T21:42:55.285Z,4.60
2019-04-21T21:45:30.376Z,5.57
2019-04-21T21:48:12.640Z,4.80
2019-04-21T21:50:43.138Z,3.97
2019-04-21T21:53:10.510Z,3.70
2019-04-21T21:55:35.862Z,4.03
2019-04-21T21:58:08.517Z,3.83
2019-04-21T22:00:43.357Z,4.33
2019-04-21T22:03:23.219Z,4.53
2019-04-21T22:05:53.435Z,3.57
2019-04-21T22:08:18.905Z,4.60
2019-04-21T22:10:49.610Z,4.43
2019-04-21T22:13:22.175Z,4.23
2019-04-21T22:15:59.457Z,3.80
2019-04-21T22:18:42.091Z,4.50
2019-04-21T22:21:11.415Z,4.30
2019-04-21T22:23:42.670Z,4.30
2019-04-21T22:26:03.067Z,4.33
2019-04-21T22:28:33.899Z,4.17
2019-04-21T22:31:05.566Z,3.43
2019-04-21T22:33:47.859Z,4.10
2019-04-21T22:36:26.697Z,3.70
2019-04-21T22:39:04.941Z,3.77
2019-04-21T22:41:28.078Z,4.00
2019-04-21T22:43:52.268Z,3.97
2019-04-21T22:46:22.325Z,4.33
2019-04-21T22:48:57.046Z,3.90
2019-04-21T22:51:32.399Z,4.30
2019-04-21T22:53:59.582Z,4.17
2019-04-21T22:56:33.539Z,4.57
2019-04-21T22:59:08.517Z,4.63
2019-04-21T23:01:41.379Z,4.90
2019-04-21T23:04:08.954Z,4.83
2019-04-21T23:06:41.284Z,4.27
2019-04-21T23:09:12.980Z,4.07
2019-04-21T23:11:50.295Z,4.00
2019-04-21T23:14:17.544Z,4.97
2019-04-21T23:16:53.952Z,5.30
2019-04-21T23:19:35.698Z,4.50
2019-04-21T23:22:09.530Z,5.13
2019-04-21T23:24:45.511Z,4.13
2019-04-21T23:27:11.743Z,5.23
2019-04-21T23:32:16.894Z,4.80
2019-04-21T23:34:37.218Z,4.23
2019-04-21T23:37:14.164Z,4.83
2019-04-21T23:39:39.713Z,5.27
2019-04-21T23:42:11.212Z,4.97
2019-04-21T23:44:48.999Z,5.13
2019-04-21T23:47:31.699Z,4.33
2019-04-21T23:49:56.608Z,5.37
2019-04-21T23:52:19.847Z,5.40
2019-04-21T23:54:51.676Z,5.17
2019-04-21T23:57:30.453Z,5.23
2019-04-21T23:59:57.139Z,5.37
